createdAt,value
2019-03-17T00:01:40.357Z,2.30
2019-03-17T00:04:30.930Z,1.83
2019-03-17T00:07:03.883Z,3.23
2019-03-17T00:09:44.956Z,4.10
2019-03-17T00:12:25.660Z,3.13
2019-03-17T00:15:06.714Z,2.30
2019-03-17T00:17:47.691Z,2.87
2019-03-17T00:20:28.502Z,2.60
2019-03-17T00:23:09.894Z,1.80
2019-03-17T00:25:50.585Z,2.13
2019-03-17T00:28:31.765Z,2.97
2019-03-17T00:31:23.333Z,2.83
2019-03-17T00:33:55.551Z,2.80
2019-03-17T00:36:36.524Z,2.80
2019-03-17T00:39:17.232Z,2.53
2019-03-17T00:41:58.207Z,2.60
2019-03-17T00:44:39.761Z,3.60
2019-03-17T00:47:20.844Z,3.47
2019-03-17T00:50:02.360Z,3.27
2019-03-17T00:52:43.694Z,1.83
2019-03-17T00:55:24.978Z,2.80
2019-03-17T00:58:09.986Z,2.07
2019-03-17T01:00:51.498Z,3.40
2019-03-17T01:03:32.432Z,1.67
2019-03-17T01:06:13.626Z,1.77
2019-03-17T01:08:54.441Z,1.63
2019-03-17T01:11:35.112Z,2.93
2019-03-17T01:14:16.480Z,3.57
2019-03-17T01:16:57.103Z,2.50
2019-03-17T01:19:27.094Z,2.90
2019-03-17T01:22:15.590Z,2.50
2019-03-17T01:25:04.168Z,2.97
2019-03-17T01:27:33.474Z,2.90
2019-03-17T01:30:21.919Z,1.93
2019-03-17T01:33:10.307Z,1.50
2019-03-17T01:35:51.593Z,2.27
2019-03-17T01:38:32.783Z,3.60
2019-03-17T01:41:13.852Z,3.40
2019-03-17T01:43:54.499Z,2.27
2019-03-17T01:46:35.861Z,2.77
2019-03-17T01:49:16.723Z,2.00
2019-03-17T01:51:57.694Z,2.40
2019-03-17T01:54:38.907Z,2.57
2019-03-17T01:57:20.306Z,2.30
2019-03-17T02:00:01.419Z,1.40
2019-03-17T02:02:42.503Z,2.30
2019-03-17T02:05:23.383Z,3.30
2019-03-17T02:08:04.623Z,2.83
2019-03-17T02:10:45.613Z,3.07
2019-03-17T02:13:26.792Z,2.53
2019-03-17T02:16:08.123Z,3.53
2019-03-17T02:18:49.337Z,3.17
2019-03-17T02:21:30.717Z,2.67
2019-03-17T02:24:11.494Z,3.90
2019-03-17T02:26:52.299Z,3.63
2019-03-17T02:29:33.498Z,2.03
2019-03-17T02:32:14.071Z,1.80
2019-03-17T02:34:55.691Z,2.87
2019-03-17T02:37:36.996Z,4.20
2019-03-17T02:40:18.254Z,2.37
2019-03-17T02:42:59.619Z,3.07
2019-03-17T02:45:41.185Z,4.43
2019-03-17T02:48:22.193Z,3.47
2019-03-17T02:51:02.790Z,2.10
2019-03-17T02:53:44.211Z,3.23
2019-03-17T02:56:13.883Z,1.27
2019-03-17T02:59:02.631Z,3.80
2019-03-17T03:01:51.081Z,3.47
2019-03-17T03:04:39.511Z,2.90
2019-03-17T03:07:27.886Z,2.23
2019-03-17T03:10:16.290Z,4.63
2019-03-17T03:13:04.751Z,3.70
2019-03-17T03:15:53.156Z,2.10
2019-03-17T03:18:41.615Z,3.10
2019-03-17T03:21:29.986Z,3.70
2019-03-17T03:24:18.364Z,3.43
2019-03-17T03:27:06.821Z,3.60
2019-03-17T03:29:55.178Z,2.60
2019-03-17T03:32:43.946Z,3.63
2019-03-17T03:35:32.778Z,3.77
2019-03-17T03:38:13.585Z,3.50
2019-03-17T03:40:54.193Z,5.03
2019-03-17T03:43:35.231Z,2.77
2019-03-17T03:46:16.574Z,4.07
2019-03-17T03:48:57.241Z,2.33
2019-03-17T03:51:38.816Z,3.43
2019-03-17T03:54:20.232Z,2.37
2019-03-17T03:56:49.635Z,2.10
2019-03-17T03:59:38.014Z,3.50
2019-03-17T04:02:26.419Z,2.33
2019-03-17T04:05:14.876Z,2.77
2019-03-17T04:08:03.247Z,1.80
2019-03-17T04:10:51.606Z,2.20
2019-03-17T04:13:40.089Z,3.73
2019-03-17T04:16:28.491Z,3.80
2019-03-17T04:19:17.256Z,2.73
2019-03-17T04:22:05.744Z,4.23
2019-03-17T04:24:54.403Z,3.07
2019-03-17T04:27:42.782Z,2.63
2019-03-17T04:30:31.165Z,3.80
2019-03-17T04:33:19.733Z,2.60
2019-03-17T04:36:08.109Z,3.17
2019-03-17T04:38:49.681Z,2.87
2019-03-17T04:41:30.886Z,1.80
2019-03-17T04:44:20.797Z,4.13
2019-03-17T04:46:54.605Z,2.47
2019-03-17T04:49:35.587Z,2.27
2019-03-17T04:52:16.515Z,3.60
2019-03-17T04:54:57.696Z,4.13
2019-03-17T04:57:39.030Z,3.37
2019-03-17T05:00:20.897Z,2.23
2019-03-17T05:03:01.539Z,3.67
2019-03-17T05:05:42.937Z,3.03
2019-03-17T05:11:36.501Z,1.83
2019-03-17T05:14:17.868Z,2.83
2019-03-17T05:16:59.142Z,2.70
2019-03-17T05:19:39.789Z,2.57
2019-03-17T05:22:20.922Z,1.90
2019-03-17T05:25:02.223Z,1.47
2019-03-17T05:27:43.546Z,3.07
2019-03-17T05:30:24.973Z,2.27
2019-03-17T05:33:05.559Z,1.43
2019-03-17T05:35:46.559Z,2.00
2019-03-17T05:38:27.531Z,5.47
2019-03-17T05:41:08.309Z,2.90
2019-03-17T05:43:49.240Z,2.10
2019-03-17T05:46:30.456Z,3.40
2019-03-17T05:49:11.890Z,1.60
2019-03-17T05:54:53.931Z,2.03
2019-03-17T05:57:35.254Z,1.67
2019-03-17T06:00:17.173Z,1.90
2019-03-17T06:02:57.835Z,2.30
2019-03-17T06:05:38.927Z,2.97
2019-03-17T06:08:20.178Z,3.37
2019-03-17T06:11:01.309Z,2.37
2019-03-17T06:13:42.642Z,2.50
2019-03-17T06:16:23.796Z,2.23
2019-03-17T06:19:05.150Z,2.17
2019-03-17T06:21:46.519Z,1.70
2019-03-17T06:24:27.701Z,1.83
2019-03-17T06:27:08.828Z,1.67
2019-03-17T06:29:50.153Z,2.73
2019-03-17T06:32:30.703Z,3.40
2019-03-17T06:35:12.628Z,2.80
2019-03-17T06:37:53.591Z,2.50
2019-03-17T06:40:34.895Z,2.20
2019-03-17T06:43:15.584Z,1.87
2019-03-17T06:45:56.638Z,1.90
2019-03-17T06:48:37.830Z,2.17
2019-03-17T06:51:18.697Z,1.67
2019-03-17T06:54:00.186Z,1.47
2019-03-17T06:56:41.595Z,1.87
2019-03-17T06:59:22.527Z,1.47
2019-03-17T07:02:03.848Z,1.47
2019-03-17T07:04:45.586Z,1.60
2019-03-17T07:07:26.656Z,1.43
2019-03-17T07:10:07.307Z,1.63
2019-03-17T07:12:48.575Z,1.40
2019-03-17T07:18:28.241Z,0.90
2019-03-17T07:21:09.514Z,0.90
2019-03-17T07:23:50.924Z,0.60
2019-03-17T07:26:20.257Z,0.83
2019-03-17T07:29:01.846Z,0.70
2019-03-17T07:31:43.053Z,0.70
2019-03-17T07:34:23.639Z,0.60
2019-03-17T07:37:04.837Z,0.80
2019-03-17T07:39:46.315Z,0.87
2019-03-17T07:42:27.541Z,0.80
2019-03-17T07:45:08.898Z,0.50
2019-03-17T07:47:50.016Z,0.70
2019-03-17T07:50:30.875Z,0.60
2019-03-17T07:53:12.458Z,0.50
2019-03-17T07:55:53.279Z,0.40
2019-03-17T07:58:37.269Z,0.57
2019-03-17T08:01:18.183Z,0.60
2019-03-17T08:03:59.439Z,0.83
2019-03-17T08:06:40.308Z,0.43
2019-03-17T08:09:21.322Z,0.40
2019-03-17T08:12:02.282Z,0.30
2019-03-17T08:14:43.362Z,0.47
2019-03-17T08:17:24.536Z,0.50
2019-03-17T08:20:05.884Z,0.50
2019-03-17T08:22:46.945Z,0.87
2019-03-17T08:25:28.741Z,0.60
2019-03-17T08:28:10.618Z,0.67
2019-03-17T08:30:53.315Z,0.80
2019-03-17T08:33:34.440Z,1.60
2019-03-17T08:36:15.318Z,0.70
2019-03-17T08:38:56.772Z,0.87
2019-03-17T08:44:50.729Z,0.90
2019-03-17T08:47:32.010Z,0.60
2019-03-17T08:50:13.364Z,0.67
2019-03-17T08:52:54.366Z,0.53
2019-03-17T08:55:35.657Z,1.23
2019-03-17T08:58:16.938Z,0.70
2019-03-17T09:00:57.585Z,0.80
2019-03-17T09:03:38.935Z,0.50
2019-03-17T09:06:21.344Z,0.90
2019-03-17T09:09:03.525Z,1.07
2019-03-17T09:11:44.753Z,0.83
2019-03-17T09:14:26.661Z,0.70
2019-03-17T09:17:14.350Z,1.10
2019-03-17T09:19:52.568Z,1.60
2019-03-17T09:22:24.568Z,1.20
2019-03-17T09:25:13.075Z,1.70
2019-03-17T09:27:53.915Z,1.00
2019-03-17T09:30:35.125Z,1.73
2019-03-17T09:33:16.654Z,1.87
2019-03-17T09:35:57.678Z,1.20
2019-03-17T09:38:47.172Z,2.30
2019-03-17T09:41:22.033Z,1.63
2019-03-17T09:44:03.339Z,1.63
2019-03-17T09:46:44.416Z,1.97
2019-03-17T09:49:25.735Z,1.30
2019-03-17T09:52:06.395Z,3.20
2019-03-17T09:54:47.589Z,1.27
2019-03-17T09:57:29.178Z,1.70
2019-03-17T10:00:10.134Z,1.60
2019-03-17T10:02:51.458Z,1.43
2019-03-17T10:05:33.237Z,1.70
2019-03-17T10:08:02.609Z,1.73
2019-03-17T10:10:51.223Z,2.47
2019-03-17T10:13:39.666Z,1.23
2019-03-17T10:16:28.310Z,1.23
2019-03-17T10:19:16.751Z,1.53
2019-03-17T10:22:05.134Z,1.43
2019-03-17T10:24:46.331Z,1.37
2019-03-17T10:27:27.914Z,1.70
2019-03-17T10:30:09.386Z,1.30
2019-03-17T10:32:50.617Z,1.50
2019-03-17T10:35:31.278Z,2.17
2019-03-17T10:38:12.837Z,2.10
2019-03-17T10:40:54.206Z,2.13
2019-03-17T10:43:35.206Z,2.00
2019-03-17T10:46:16.429Z,1.77
2019-03-17T10:48:57.909Z,2.30
2019-03-17T10:51:39.117Z,1.50
2019-03-17T10:54:20.298Z,1.30
2019-03-17T10:57:01.517Z,1.40
2019-03-17T10:59:42.789Z,1.77
2019-03-17T11:02:23.367Z,1.77
2019-03-17T11:05:04.733Z,1.63
2019-03-17T11:07:46.458Z,1.40
2019-03-17T11:10:27.627Z,1.40
2019-03-17T11:13:09.281Z,1.60
2019-03-17T11:15:50.358Z,0.60
2019-03-17T11:18:30.930Z,1.00
2019-03-17T11:21:11.576Z,1.10
2019-03-17T11:23:52.950Z,1.20
2019-03-17T11:26:34.169Z,1.50
2019-03-17T11:29:15.343Z,1.23
2019-03-17T11:31:56.574Z,1.20
2019-03-17T11:34:37.676Z,1.03
2019-03-17T11:37:19.005Z,1.20
2019-03-17T11:40:00.524Z,1.67
2019-03-17T11:42:41.335Z,2.00
2019-03-17T11:45:21.956Z,1.37
2019-03-17T11:48:02.847Z,1.17
2019-03-17T11:50:44.324Z,1.10
2019-03-17T11:53:25.763Z,1.00
2019-03-17T11:56:05.425Z,1.40
2019-03-17T11:58:53.867Z,1.10
2019-03-17T12:01:42.629Z,0.60
2019-03-17T12:04:31.093Z,0.90
2019-03-17T12:07:19.457Z,1.37
2019-03-17T12:10:26.994Z,1.00
2019-03-17T12:13:15.366Z,1.10
2019-03-17T12:16:03.770Z,1.00
2019-03-17T12:18:52.215Z,1.27
2019-03-17T12:21:40.629Z,0.87
2019-03-17T12:24:21.351Z,1.13
2019-03-17T12:27:02.826Z,1.20
2019-03-17T12:29:44.052Z,1.33
2019-03-17T12:32:24.682Z,1.20
2019-03-17T12:35:05.335Z,1.40
2019-03-17T12:37:46.596Z,1.17
2019-03-17T12:40:27.965Z,1.10
2019-03-17T12:43:09.117Z,1.10
2019-03-17T12:45:50.574Z,1.57
2019-03-17T12:51:44.056Z,1.10
2019-03-17T12:54:27.760Z,1.60
2019-03-17T12:57:07.915Z,1.40
2019-03-17T12:59:48.612Z,1.10
2019-03-17T13:02:29.418Z,1.07
2019-03-17T13:05:10.517Z,1.60
2019-03-17T13:07:51.819Z,0.90
2019-03-17T13:10:33.442Z,0.57
2019-03-17T13:16:13.498Z,0.70
2019-03-17T13:18:54.853Z,0.63
2019-03-17T13:21:36.027Z,0.90
2019-03-17T13:27:15.735Z,1.07
2019-03-17T13:29:57.072Z,0.90
2019-03-17T13:32:38.037Z,0.90
2019-03-17T13:35:19.222Z,0.93
2019-03-17T13:40:59.551Z,0.93
2019-03-17T13:43:40.532Z,0.80
2019-03-17T13:46:21.594Z,1.23
2019-03-17T13:49:02.795Z,0.90
2019-03-17T13:51:43.861Z,1.10
2019-03-17T13:54:25.309Z,0.90
2019-03-17T13:57:06.670Z,1.37
2019-03-17T13:59:51.098Z,0.97
2019-03-17T14:02:31.807Z,0.90
2019-03-17T14:05:12.800Z,1.23
2019-03-17T14:07:54.135Z,1.63
2019-03-17T14:10:41.003Z,1.40
2019-03-17T14:13:18.404Z,1.50
2019-03-17T14:15:58.981Z,1.40
2019-03-17T14:18:39.622Z,1.00
2019-03-17T14:21:21.011Z,1.60
2019-03-17T14:24:02.154Z,1.10
2019-03-17T14:26:43.530Z,1.10
2019-03-17T14:29:24.116Z,1.00
2019-03-17T14:32:05.201Z,1.50
2019-03-17T14:34:46.450Z,1.00
2019-03-17T14:37:28.183Z,1.33
2019-03-17T14:40:09.117Z,1.30
2019-03-17T14:42:49.677Z,1.53
2019-03-17T14:45:31.105Z,1.50
2019-03-17T14:48:12.470Z,1.23
2019-03-17T14:50:53.275Z,1.30
2019-03-17T14:53:34.682Z,1.60
2019-03-17T14:56:16.178Z,1.60
2019-03-17T14:58:57.380Z,1.10
2019-03-17T15:01:38.431Z,1.20
2019-03-17T15:04:20.010Z,1.17
2019-03-17T15:07:00.864Z,1.10
2019-03-17T15:09:41.660Z,1.20
2019-03-17T15:12:22.681Z,1.60
2019-03-17T15:15:03.838Z,1.40
2019-03-17T15:17:45.140Z,1.00
2019-03-17T15:20:26.573Z,1.03
2019-03-17T15:23:08.015Z,1.20
2019-03-17T15:25:48.993Z,1.17
2019-03-17T15:28:30.153Z,1.00
2019-03-17T15:31:12.625Z,1.20
2019-03-17T15:33:53.814Z,0.63
2019-03-17T15:36:34.788Z,0.93
2019-03-17T15:39:15.734Z,1.10
2019-03-17T15:41:56.583Z,1.00
2019-03-17T15:44:38.404Z,0.90
2019-03-17T15:47:19.285Z,0.90
2019-03-17T15:50:00.771Z,0.53
2019-03-17T15:52:42.207Z,1.20
2019-03-17T15:58:36.533Z,1.00
2019-03-17T16:01:17.473Z,2.00
2019-03-17T16:04:01.735Z,1.10
2019-03-17T16:06:43.851Z,1.27
2019-03-17T16:09:25.264Z,1.30
2019-03-17T16:12:06.690Z,2.20
2019-03-17T16:14:47.797Z,1.73
2019-03-17T16:17:29.432Z,1.70
2019-03-17T16:20:10.819Z,1.50
2019-03-17T16:22:51.504Z,1.43
2019-03-17T16:25:32.684Z,1.33
2019-03-17T16:28:14.070Z,0.90
2019-03-17T16:30:55.203Z,0.80
2019-03-17T16:33:36.465Z,1.20
2019-03-17T16:36:17.109Z,1.40
2019-03-17T16:38:58.281Z,1.00
2019-03-17T16:44:51.674Z,0.97
2019-03-17T16:47:32.943Z,0.90
2019-03-17T16:50:14.347Z,0.80
2019-03-17T16:52:55.207Z,1.00
2019-03-17T16:55:35.760Z,0.80
2019-03-17T16:58:17.087Z,0.80
2019-03-17T17:00:58.182Z,0.60
2019-03-17T17:03:39.206Z,1.03
2019-03-17T17:06:20.814Z,0.60
2019-03-17T17:09:02.090Z,0.70
2019-03-17T17:11:55.330Z,0.90
2019-03-17T17:14:26.486Z,0.90
2019-03-17T17:17:07.908Z,0.70
2019-03-17T17:19:49.013Z,1.47
2019-03-17T17:22:30.806Z,0.70
2019-03-17T17:25:11.819Z,0.80
2019-03-17T17:27:53.354Z,1.03
2019-03-17T17:30:34.563Z,1.20
2019-03-17T17:33:16.441Z,0.77
2019-03-17T17:35:57.837Z,1.30
2019-03-17T17:38:39.054Z,1.27
2019-03-17T17:41:20.220Z,1.30
2019-03-17T17:43:49.723Z,1.30
2019-03-17T17:46:38.237Z,1.20
2019-03-17T17:49:27.008Z,1.30
2019-03-17T17:52:15.671Z,1.23
2019-03-17T17:55:04.312Z,1.37
2019-03-17T17:57:53.367Z,1.67
2019-03-17T18:03:52.550Z,1.03
2019-03-17T18:06:33.830Z,1.53
2019-03-17T18:09:15.407Z,1.03
2019-03-17T18:11:56.578Z,1.07
2019-03-17T18:14:37.951Z,0.90
2019-03-17T18:17:19.023Z,1.60
2019-03-17T18:20:00.505Z,0.87
2019-03-17T18:22:41.915Z,0.80
2019-03-17T18:25:23.238Z,0.90
2019-03-17T18:28:04.518Z,0.70
2019-03-17T18:30:46.441Z,0.90
2019-03-17T18:33:27.430Z,0.90
2019-03-17T18:36:08.330Z,0.70
2019-03-17T18:38:49.192Z,1.00
2019-03-17T18:41:30.564Z,0.40
2019-03-17T18:44:11.721Z,1.30
2019-03-17T18:46:52.876Z,1.10
2019-03-17T18:49:34.685Z,0.87
2019-03-17T18:52:15.532Z,0.90
2019-03-17T18:54:57.208Z,1.10
2019-03-17T18:57:39.879Z,0.87
2019-03-17T19:00:22.240Z,0.90
2019-03-17T19:03:02.848Z,0.60
2019-03-17T19:05:44.198Z,1.10
2019-03-17T19:08:13.638Z,1.37
2019-03-17T19:11:02.278Z,1.00
2019-03-17T19:13:51.221Z,1.50
2019-03-17T19:16:39.815Z,1.03
2019-03-17T19:19:28.353Z,0.67
2019-03-17T19:21:57.957Z,1.10
2019-03-17T19:24:46.464Z,0.90
2019-03-17T19:27:34.957Z,1.70
2019-03-17T19:30:23.457Z,0.93
2019-03-17T19:33:11.852Z,0.60
2019-03-17T19:36:00.528Z,1.03
2019-03-17T19:38:49.216Z,0.40
2019-03-17T19:41:37.599Z,0.97
2019-03-17T19:44:25.978Z,1.40
2019-03-17T19:47:14.709Z,0.83
2019-03-17T19:50:03.226Z,0.80
2019-03-17T19:52:51.716Z,1.37
2019-03-17T19:55:40.140Z,2.00
2019-03-17T19:58:28.530Z,1.87
2019-03-17T20:01:16.980Z,1.40
2019-03-17T20:03:58.398Z,0.60
2019-03-17T20:06:39.563Z,1.70
2019-03-17T20:09:20.303Z,1.67
2019-03-17T20:12:01.384Z,1.40
2019-03-17T20:14:42.523Z,1.00
2019-03-17T20:17:23.640Z,1.63
2019-03-17T20:20:05.006Z,2.17
2019-03-17T20:22:46.293Z,1.10
2019-03-17T20:25:26.838Z,1.80
2019-03-17T20:28:09.842Z,1.57
2019-03-17T20:30:51.748Z,1.50
2019-03-17T20:33:32.909Z,0.67
2019-03-17T20:36:13.744Z,1.27
2019-03-17T20:38:55.306Z,0.93
2019-03-17T20:41:36.417Z,2.13
2019-03-17T20:44:17.283Z,1.13
2019-03-17T20:46:58.265Z,1.20
2019-03-17T20:49:39.267Z,1.77
2019-03-17T20:52:20.493Z,1.13
2019-03-17T20:55:01.266Z,1.00
2019-03-17T20:57:42.022Z,1.10
2019-03-17T21:00:23.542Z,1.30
2019-03-17T21:02:53.480Z,1.90
2019-03-17T21:05:41.907Z,1.30
2019-03-17T21:08:30.311Z,1.20
2019-03-17T21:11:18.731Z,1.47
2019-03-17T21:17:22.150Z,1.30
2019-03-17T21:20:13.764Z,1.03
2019-03-17T21:23:02.482Z,0.70
2019-03-17T21:32:12.073Z,1.53
2019-03-17T21:38:16.152Z,1.83
2019-03-17T21:41:07.264Z,1.70
2019-03-17T21:43:59.311Z,2.00
2019-03-17T21:46:44.867Z,1.43
2019-03-17T21:49:33.370Z,0.87
2019-03-17T21:52:22.223Z,1.07
2019-03-17T21:55:11.089Z,1.17
2019-03-17T21:58:07.315Z,1.20
2019-03-17T22:00:30.627Z,1.60
2019-03-17T22:03:19.437Z,1.30
2019-03-17T22:06:07.928Z,0.93
2019-03-17T22:08:56.561Z,1.30
2019-03-17T22:11:44.980Z,1.40
2019-03-17T22:14:33.408Z,0.80
2019-03-17T22:17:21.814Z,1.40
2019-03-17T22:20:10.740Z,1.63
2019-03-17T22:22:59.251Z,1.33
2019-03-17T22:25:47.647Z,1.20
2019-03-17T22:28:36.340Z,1.13
2019-03-17T22:31:25.051Z,1.93
2019-03-17T22:34:13.619Z,1.50
2019-03-17T22:37:02.159Z,1.70
2019-03-17T22:39:31.455Z,1.17
2019-03-17T22:42:19.884Z,1.77
2019-03-17T22:45:08.707Z,1.63
2019-03-17T22:47:57.202Z,2.50
2019-03-17T22:50:45.598Z,1.03
2019-03-17T22:53:34.075Z,1.43
2019-03-17T22:56:34.419Z,1.30
2019-03-17T22:59:12.734Z,2.13
2019-03-17T23:02:01.205Z,1.47
2019-03-17T23:04:49.620Z,1.60
2019-03-17T23:07:50.730Z,0.80
2019-03-17T23:10:28.713Z,1.80
2019-03-17T23:13:17.174Z,1.33
2019-03-17T23:16:05.622Z,1.93
2019-03-17T23:18:54.272Z,1.27
2019-03-17T23:21:42.770Z,2.47
2019-03-17T23:24:31.473Z,1.67
2019-03-17T23:27:20.130Z,1.47
2019-03-17T23:30:09.313Z,2.30
2019-03-17T23:32:57.799Z,2.20
2019-03-17T23:35:46.205Z,2.80
2019-03-17T23:38:34.626Z,2.23
2019-03-17T23:41:23.049Z,1.50
2019-03-17T23:44:11.757Z,2.20
2019-03-17T23:47:00.293Z,2.90
2019-03-17T23:49:48.706Z,1.57
2019-03-17T23:55:37.549Z,2.87
2019-03-17T23:58:25.968Z,3.03
